Irish Sea — WDB5555 — position and weather

sailwx.info

Track history (hours):
 
Tides and Currents Weather Stations Pressure Air Temp Water Temp Dewpoint Dewpoint Depression Visibility Wind Speed Wind Dir Waves Ship Positions

Irish Sea

More information available from US FCC via Universal Licensing System and Coast Guard Vessel Documentation Center.

Last reported at 2014-Aug-01 03:33 UTC. Time now 2014-Aug-01 03:53 UTC.
Position N 40°57' W 073°32'.

Length 152 m; draft 6.8 m.

Type: Ship (hazmat cat B). MMSI: 366910920.

Date/timePositionNaut miles runAvg speedWind from/ knotsBaromVisibWave heightAir tempDewpointWater temp
2014-Aug-01 03:33N 40°57' W 073°32'10 9.7
2014-Aug-01 02:33N 41°01' W 073°21'9 9.4
2014-Aug-01 01:33N 41°05' W 073°09'9 9.1
2014-Aug-01 00:32N 41°10' W 072°59'9 0.9
2014-Jul-31 15:21N 41°18' W 072°55'0 0.0
2014-Jul-31 14:33N 41°18' W 072°55'0 0.0
2014-Jul-31 13:33N 41°18' W 072°55'0 0.0
2014-Jul-31 12:30N 41°18' W 072°55'0 0.0
2014-Jul-31 11:24N 41°18' W 072°55'0 0.0
2014-Jul-31 10:24N 41°18' W 072°55'3 0.8
2014-Jul-31 06:32N 41°15' W 072°55'6 6.6
2014-Jul-31 05:33N 41°09' W 072°60'7 7.2
2014-Jul-31 04:33N 41°05' W 073°07'8 7.5
2014-Jul-31 03:33N 41°03' W 073°17'8 7.5
2014-Jul-31 02:33N 40°60' W 073°26'28 6.9
2014-Jul-30 22:33N 40°45' W 073°57'5 4.7
2014-Jul-30 21:33N 40°41' W 074°00'3 2.6
2014-Jul-30 20:32N 40°39' W 074°03'7 3.2
2014-Jul-30 18:23N 40°33' W 074°01'42 7.0
2014-Jul-30 12:19N 39°51' W 073°57'6 7.9
2014-Jul-30 11:33N 39°45' W 073°58'8 7.8
2014-Jul-30 10:33N 39°38' W 074°03'8 7.6
2014-Jul-30 09:33N 39°31' W 074°07'  
2014-Jul-27 09:27N 39°28' W 074°10'8 8.8
2014-Jul-27 08:33N 39°35' W 074°05'9 9.2
2014-Jul-27 07:33N 39°43' W 073°59'10 9.3
2014-Jul-27 06:29N 39°53' W 073°57'9 9.4
2014-Jul-27 05:33N 40°01' W 073°56'10 9.7
2014-Jul-27 04:33N 40°11' W 073°55'11 9.8
2014-Jul-27 03:25N 40°22' W 073°54'8 9.0
2014-Jul-27 02:33N 40°30' W 073°56'12 4.2
2014-Jul-26 23:34N 40°42' W 073°58'0 0.0
2014-Jul-26 22:34N 40°42' W 073°58'0 0.0
2014-Jul-26 21:34N 40°42' W 073°58'0 0.0
2014-Jul-26 20:34N 40°42' W 073°58'0 0.0
2014-Jul-26 19:34N 40°42' W 073°58'0 0.0
2014-Jul-26 18:34N 40°42' W 073°58'0 0.0
2014-Jul-26 17:34N 40°42' W 073°58'0 0.0
2014-Jul-26 16:34N 40°42' W 073°58'0 0.0
2014-Jul-26 15:34N 40°42' W 073°58'0 0.0
2014-Jul-26 14:34N 40°42' W 073°58'0 0.0
2014-Jul-26 13:34N 40°42' W 073°58'0 0.0
2014-Jul-26 12:34N 40°42' W 073°58'0 0.0
2014-Jul-26 11:34N 40°42' W 073°58'0 0.0
2014-Jul-26 10:34N 40°42' W 073°58'0 0.0
2014-Jul-26 09:33N 40°42' W 073°58'0 0.0
2014-Jul-26 08:33N 40°42' W 073°58'3 3.0
2014-Jul-26 07:34N 40°41' W 074°02'7 4.8
2014-Jul-26 06:13N 40°38' W 074°10'0 0.0
2014-Jul-26 04:30N 40°39' W 074°10'0 0.1
2014-Jul-25 23:32N 40°38' W 074°10'9 9.6
2014-Jul-25 22:34N 40°42' W 073°59'1 0.9
2014-Jul-25 21:33N 40°43' W 073°58'30 7.1
2014-Jul-25 17:22N 40°60' W 073°25'8 9.5
2014-Jul-25 16:34N 41°01' W 073°16'10 9.6
2014-Jul-25 15:32N 41°03' W 073°03'1010.0
2014-Jul-25 14:33N 41°05' W 072°50'1010.5
2014-Jul-25 13:34N 41°08' W 072°36'1211.5
2014-Jul-25 12:33N 41°11' W 072°22'1211.6
2014-Jul-25 11:33N 41°14' W 072°07'1010.2
2014-Jul-25 10:33N 41°15' W 071°54'1010.2
2014-Jul-25 09:33N 41°17' W 071°40'10 9.5
2014-Jul-25 08:33N 41°18' W 071°28'10 9.7
2014-Jul-25 07:33N 41°27' W 071°23'10 9.5
2014-Jul-25 06:29N 41°37' W 071°18'9 9.2
2014-Jul-25 05:34N 41°45' W 071°22'4 0.2
2014-Jul-24 11:26N 41°49' W 071°24'0 0.0
2014-Jul-24 10:33N 41°49' W 071°24'1 0.3
2014-Jul-24 06:31N 41°48' W 071°23'7 6.9
2014-Jul-24 05:34N 41°42' W 071°19'7 7.3
2014-Jul-24 04:33N 41°34' W 071°19'7 7.0
2014-Jul-24 03:33N 41°28' W 071°22'7 7.1
2014-Jul-24 02:33N 41°21' W 071°21'8 7.6
2014-Jul-24 01:33N 41°13' W 071°21'8 7.6
2014-Jul-24 00:33N 41°06' W 071°26'8 8.0
2014-Jul-23 23:34N 41°01' W 071°34'8 8.0
2014-Jul-23 22:33N 40°56' W 071°42'8 8.1
2014-Jul-23 21:33N 40°51' W 071°50'8 8.0
2014-Jul-23 20:33N 40°46' W 071°58'8 8.0
2014-Jul-23 19:33N 40°41' W 072°07'8 7.9
2014-Jul-23 18:33N 40°37' W 072°15'8 7.8
2014-Jul-23 17:33N 40°32' W 072°23'8 7.8
2014-Jul-23 16:33N 40°27' W 072°31'8 7.7
2014-Jul-23 15:33N 40°22' W 072°39'8 7.7
2014-Jul-23 14:32N 40°17' W 072°47'8 7.8
2014-Jul-23 13:33N 40°12' W 072°55'8 7.9
2014-Jul-23 12:33N 40°07' W 073°03'8 7.9
2014-Jul-23 11:33N 40°02' W 073°11'8 7.9
2014-Jul-23 10:33N 39°57' W 073°19'8 7.8
2014-Jul-23 09:33N 39°52' W 073°26'8 7.8
2014-Jul-23 08:33N 39°47' W 073°34'8 7.8
2014-Jul-23 07:33N 39°43' W 073°43'8 7.8
2014-Jul-23 06:33N 39°38' W 073°50'8 7.8
2014-Jul-23 05:33N 39°33' W 073°58'8 7.7
2014-Jul-23 04:33N 39°28' W 074°06'8 7.5
2014-Jul-23 03:32N 39°23' W 074°13'9 7.4
2014-Jul-23 02:22N 39°16' W 074°21'6 7.5
2014-Jul-23 01:31N 39°11' W 074°26'9 7.7
2014-Jul-23 00:19N 39°04' W 074°34'6 7.5
2014-Jul-22 23:33N 39°00' W 074°39'  
Track history (hours):
 
Tides and Currents Weather Stations Pressure Air Temp Water Temp Dewpoint Dewpoint Depression Visibility Wind Speed Wind Dir Waves Ship Positions

Irish Sea

More information available from US FCC via Universal Licensing System and Coast Guard Vessel Documentation Center.

Last reported at 2014-Aug-01 03:33 UTC. Time now 2014-Aug-01 03:53 UTC.
Position N 40°57' W 073°32'.

Length 152 m; draft 6.8 m.

Type: Ship (hazmat cat B). MMSI: 366910920.

Date/timePositionNaut miles runAvg speedWind from/ knotsBaromVisibWave heightAir tempDewpointWater temp
2014-Aug-01 03:33N 40°57' W 073°32'10 9.7
2014-Aug-01 02:33N 41°01' W 073°21'9 9.4
2014-Aug-01 01:33N 41°05' W 073°09'9 9.1
2014-Aug-01 00:32N 41°10' W 072°59'9 0.9
2014-Jul-31 15:21N 41°18' W 072°55'0 0.0
2014-Jul-31 14:33N 41°18' W 072°55'0 0.0
2014-Jul-31 13:33N 41°18' W 072°55'0 0.0
2014-Jul-31 12:30N 41°18' W 072°55'0 0.0
2014-Jul-31 11:24N 41°18' W 072°55'0 0.0
2014-Jul-31 10:24N 41°18' W 072°55'3 0.8
2014-Jul-31 06:32N 41°15' W 072°55'6 6.6
2014-Jul-31 05:33N 41°09' W 072°60'7 7.2
2014-Jul-31 04:33N 41°05' W 073°07'8 7.5
2014-Jul-31 03:33N 41°03' W 073°17'8 7.5
2014-Jul-31 02:33N 40°60' W 073°26'28 6.9
2014-Jul-30 22:33N 40°45' W 073°57'5 4.7
2014-Jul-30 21:33N 40°41' W 074°00'3 2.6
2014-Jul-30 20:32N 40°39' W 074°03'7 3.2
2014-Jul-30 18:23N 40°33' W 074°01'42 7.0
2014-Jul-30 12:19N 39°51' W 073°57'6 7.9
2014-Jul-30 11:33N 39°45' W 073°58'8 7.8
2014-Jul-30 10:33N 39°38' W 074°03'8 7.6
2014-Jul-30 09:33N 39°31' W 074°07'  
2014-Jul-27 09:27N 39°28' W 074°10'8 8.8
2014-Jul-27 08:33N 39°35' W 074°05'9 9.2
2014-Jul-27 07:33N 39°43' W 073°59'10 9.3
2014-Jul-27 06:29N 39°53' W 073°57'9 9.4
2014-Jul-27 05:33N 40°01' W 073°56'10 9.7
2014-Jul-27 04:33N 40°11' W 073°55'11 9.8
2014-Jul-27 03:25N 40°22' W 073°54'8 9.0
2014-Jul-27 02:33N 40°30' W 073°56'12 4.2
2014-Jul-26 23:34N 40°42' W 073°58'0 0.0
2014-Jul-26 22:34N 40°42' W 073°58'0 0.0
2014-Jul-26 21:34N 40°42' W 073°58'0 0.0
2014-Jul-26 20:34N 40°42' W 073°58'0 0.0
2014-Jul-26 19:34N 40°42' W 073°58'0 0.0
2014-Jul-26 18:34N 40°42' W 073°58'0 0.0
2014-Jul-26 17:34N 40°42' W 073°58'0 0.0
2014-Jul-26 16:34N 40°42' W 073°58'0 0.0
2014-Jul-26 15:34N 40°42' W 073°58'0 0.0
2014-Jul-26 14:34N 40°42' W 073°58'0 0.0
2014-Jul-26 13:34N 40°42' W 073°58'0 0.0
2014-Jul-26 12:34N 40°42' W 073°58'0 0.0
2014-Jul-26 11:34N 40°42' W 073°58'0 0.0
2014-Jul-26 10:34N 40°42' W 073°58'0 0.0
2014-Jul-26 09:33N 40°42' W 073°58'0 0.0
2014-Jul-26 08:33N 40°42' W 073°58'3 3.0
2014-Jul-26 07:34N 40°41' W 074°02'7 4.8
2014-Jul-26 06:13N 40°38' W 074°10'0 0.0
2014-Jul-26 04:30N 40°39' W 074°10'0 0.1
2014-Jul-25 23:32N 40°38' W 074°10'9 9.6
2014-Jul-25 22:34N 40°42' W 073°59'1 0.9
2014-Jul-25 21:33N 40°43' W 073°58'30 7.1
2014-Jul-25 17:22N 40°60' W 073°25'8 9.5
2014-Jul-25 16:34N 41°01' W 073°16'10 9.6
2014-Jul-25 15:32N 41°03' W 073°03'1010.0
2014-Jul-25 14:33N 41°05' W 072°50'1010.5
2014-Jul-25 13:34N 41°08' W 072°36'1211.5
2014-Jul-25 12:33N 41°11' W 072°22'1211.6
2014-Jul-25 11:33N 41°14' W 072°07'1010.2
2014-Jul-25 10:33N 41°15' W 071°54'1010.2
2014-Jul-25 09:33N 41°17' W 071°40'10 9.5
2014-Jul-25 08:33N 41°18' W 071°28'10 9.7
2014-Jul-25 07:33N 41°27' W 071°23'10 9.5
2014-Jul-25 06:29N 41°37' W 071°18'9 9.2
2014-Jul-25 05:34N 41°45' W 071°22'4 0.2
2014-Jul-24 11:26N 41°49' W 071°24'0 0.0
2014-Jul-24 10:33N 41°49' W 071°24'1 0.3
2014-Jul-24 06:31N 41°48' W 071°23'7 6.9
2014-Jul-24 05:34N 41°42' W 071°19'7 7.3
2014-Jul-24 04:33N 41°34' W 071°19'7 7.0
2014-Jul-24 03:33N 41°28' W 071°22'7 7.1
2014-Jul-24 02:33N 41°21' W 071°21'8 7.6
2014-Jul-24 01:33N 41°13' W 071°21'8 7.6
2014-Jul-24 00:33N 41°06' W 071°26'8 8.0
2014-Jul-23 23:34N 41°01' W 071°34'8 8.0
2014-Jul-23 22:33N 40°56' W 071°42'8 8.1
2014-Jul-23 21:33N 40°51' W 071°50'8 8.0
2014-Jul-23 20:33N 40°46' W 071°58'8 8.0
2014-Jul-23 19:33N 40°41' W 072°07'8 7.9
2014-Jul-23 18:33N 40°37' W 072°15'8 7.8
2014-Jul-23 17:33N 40°32' W 072°23'8 7.8
2014-Jul-23 16:33N 40°27' W 072°31'8 7.7
2014-Jul-23 15:33N 40°22' W 072°39'8 7.7
2014-Jul-23 14:32N 40°17' W 072°47'8 7.8
2014-Jul-23 13:33N 40°12' W 072°55'8 7.9
2014-Jul-23 12:33N 40°07' W 073°03'8 7.9
2014-Jul-23 11:33N 40°02' W 073°11'8 7.9
2014-Jul-23 10:33N 39°57' W 073°19'8 7.8
2014-Jul-23 09:33N 39°52' W 073°26'8 7.8
2014-Jul-23 08:33N 39°47' W 073°34'8 7.8
2014-Jul-23 07:33N 39°43' W 073°43'8 7.8
2014-Jul-23 06:33N 39°38' W 073°50'8 7.8
2014-Jul-23 05:33N 39°33' W 073°58'8 7.7
2014-Jul-23 04:33N 39°28' W 074°06'8 7.5
2014-Jul-23 03:32N 39°23' W 074°13'9 7.4
2014-Jul-23 02:22N 39°16' W 074°21'6 7.5
2014-Jul-23 01:31N 39°11' W 074°26'9 7.7
2014-Jul-23 00:19N 39°04' W 074°34'6 7.5
2014-Jul-22 23:33N 39°00' W 074°39'  

Dump ship's entire track history